Time;durP1;ratioP1;P1;durP2;ratioP2;P2;SDS_P1;SDS_P2;PMS_P1;PMS_P2;Temp;Humidity;BMP_temperature;BMP_pressure;BME280_temperature;BME280_humidity;BME280_pressure;Samples;Min_cycle;Max_cycle;Signal;HPM_P1;HPM_P2
2023/11/05 00:00:29;;;;;;;;;;;;;;;-144.99;100.00;52523.50;5090344;28;20015;-70
2023/11/05 00:02:55;;;;;;;;;;;;;;;-144.99;100.00;52497.00;5088736;28;20038;-70
2023/11/05 00:05:21;;;;;;;;;;;;;;;-144.99;100.00;52497.00;5089527;28;20070;-70
2023/11/05 00:07:48;;;;;;;;;;;;;;;-144.99;100.00;52513.31;5099283;28;20501;-70
2023/11/05 00:10:14;;;;;;;;;;;;;;;-144.99;100.00;52539.81;5089496;28;19979;-69
2023/11/05 00:12:41;;;;;;;;;;;;;;;-144.99;100.00;52488.84;5090025;28;19989;-71
2023/11/05 00:15:08;;;;;;;;;;;;;;;-144.99;100.00;52523.50;5087936;28;19943;-69
2023/11/05 00:17:36;;;;;;;;;;;;;;;-144.99;100.00;52545.94;5085325;28;20456;-70
2023/11/05 00:20:06;;;;;;;;;;;;;;;-144.99;100.00;52570.38;5089633;28;20015;-70
2023/11/05 00:22:33;;;;;;;;;;;;;;;-144.99;100.00;52501.09;5082447;28;20102;-71
2023/11/05 00:24:59;;;;;;;;;;;;;;;-144.99;100.00;52488.84;5089461;28;19972;-71
2023/11/05 00:27:26;;;;;;;;;;;;;;;-144.99;100.00;52523.50;5089725;28;20046;-71
2023/11/05 00:29:54;;;;;;;;;;;;;;;-144.99;100.00;52523.50;5098107;28;20039;-71
2023/11/05 00:32:20;;;;;;;;;;;;;;;-144.99;100.00;52525.56;5089767;28;19950;-71
2023/11/05 00:34:48;;;;;;;;;;;;;;;-144.99;100.00;52515.34;5088927;28;20042;-70
2023/11/05 00:37:14;;;;;;;;;;;;;;;-144.99;100.00;52523.50;5089354;28;19956;-70
2023/11/05 00:39:42;;;;;;;;;;;;;;;-144.99;100.00;52545.94;5089830;28;20040;-70
2023/11/05 00:42:09;;;;;;;;;;;;;;;-144.99;100.00;52527.59;5090457;28;20030;-70
2023/11/05 00:44:35;;;;;;;;;;;;;;;-144.99;100.00;52519.44;5093614;28;20029;-70
2023/11/05 00:47:02;;;;;;;;;;;;;;;-144.99;100.00;52533.69;5097889;28;20064;-70
2023/11/05 00:49:28;;;;;;;;;;;;;;;-144.99;100.00;52513.31;5089326;28;20018;-70
2023/11/05 00:51:56;;;;;;;;;;;;;;;-144.99;100.00;52488.84;5089179;28;19992;-70
2023/11/05 00:54:22;;;;;;;;;;;;;;;-144.99;100.00;52519.44;5097722;28;19943;-70
2023/11/05 00:56:49;;;;;;;;;;;;;;;-144.99;100.00;52537.78;5088963;28;20559;-70
2023/11/05 00:59:15;;;;;;;;;;;;;;;-144.99;100.00;52525.56;5088981;28;20034;-70
2023/11/05 01:01:41;;;;;;;;;;;;;;;-144.99;100.00;52509.25;5088091;28;19958;-70
2023/11/05 01:04:08;;;;;;;;;;;;;;;-144.99;100.00;52460.31;5089099;28;20009;-69
2023/11/05 01:06:34;;;;;;;;;;;;;;;-144.99;100.00;52523.50;5097193;28;19991;-70
2023/11/05 01:09:02;;;;;;;;;;;;;;;-144.99;100.00;52488.84;5094504;28;20044;-70
2023/11/05 01:11:28;;;;;;;;;;;;;;;-144.99;100.00;52529.63;5091663;28;20289;-70
2023/11/05 01:13:55;;;;;;;;;;;;;;;-144.99;100.00;52537.78;5091801;28;20175;-71
2023/11/05 01:16:22;;;;;;;;;;;;;;;-144.99;100.00;52513.31;5090268;28;19958;-70
2023/11/05 01:18:49;;;;;;;;;;;;;;;-144.99;100.00;52507.19;5089351;28;19959;-71
2023/11/05 01:21:15;;;;;;;;;;;;;;;-144.99;100.00;52515.34;5089157;28;20330;-70
2023/11/05 01:23:42;;;;;;;;;;;;;;;-144.99;100.00;52513.31;5098214;28;20413;-70
2023/11/05 01:26:09;;;;;;;;;;;;;;;-144.99;100.00;52501.09;5088873;28;20053;-71
2023/11/05 01:28:36;;;;;;;;;;;;;;;-144.99;100.00;52513.31;5089415;28;19992;-69
2023/11/05 01:31:03;;;;;;;;;;;;;;;-144.99;100.00;52523.50;5089416;28;19940;-70
2023/11/05 01:33:29;;;;;;;;;;;;;;;-144.99;100.00;52509.25;5086438;28;20033;-70
2023/11/05 01:35:56;;;;;;;;;;;;;;;-144.99;100.00;52484.78;5088993;28;20299;-70
2023/11/05 01:38:22;;;;;;;;;;;;;;;-144.99;100.00;52509.25;5088941;28;19986;-70
2023/11/05 01:40:49;;;;;;;;;;;;;;;-144.99;100.00;52501.09;5100359;28;19973;-70
2023/11/05 01:43:17;;;;;;;;;;;;;;;-144.99;100.00;52484.78;5104658;28;19956;-70
2023/11/05 01:45:43;;;;;;;;;;;;;;;-144.99;100.00;52517.41;5103085;28;19982;-69
2023/11/05 01:48:10;;;;;;;;;;;;;;;-144.99;100.00;52543.91;5087982;28;19939;-69
2023/11/05 01:50:36;;;;;;;;;;;;;;;-144.99;100.00;52517.41;5096654;28;20025;-69
2023/11/05 01:53:03;;;;;;;;;;;;;;;-144.99;100.00;52482.75;5090744;28;20017;-70
2023/11/05 01:55:29;;;;;;;;;;;;;;;-144.99;100.00;52521.47;5084235;28;19943;-69
2023/11/05 01:57:56;;;;;;;;;;;;;;;-144.99;100.00;52509.25;5092748;28;20388;-70
2023/11/05 02:00:24;;;;;;;;;;;;;;;-144.99;100.00;52503.13;5101118;28;20062;-69
2023/11/05 02:02:50;;;;;;;;;;;;;;;-144.99;100.00;52550.00;5091489;28;19995;-70
2023/11/05 02:05:16;;;;;;;;;;;;;;;-144.99;100.00;52509.25;5091912;28;20366;-70
2023/11/05 02:07:43;;;;;;;;;;;;;;;-144.99;100.00;52513.31;5092103;28;20081;-70
2023/11/05 02:10:10;;;;;;;;;;;;;;;-144.99;100.00;52523.50;5092312;28;19985;-69
2023/11/05 02:12:36;;;;;;;;;;;;;;;-144.99;100.00;52521.47;5092320;28;20442;-69
2023/11/05 02:15:05;;;;;;;;;;;;;;;-144.99;100.00;52521.47;5090819;28;19947;-72
2023/11/05 02:17:32;;;;;;;;;;;;;;;-144.99;100.00;52531.66;5087489;28;20360;-70
2023/11/05 02:19:59;;;;;;;;;;;;;;;-144.99;100.00;52562.25;5092633;28;19950;-69
2023/11/05 02:22:28;;;;;;;;;;;;;;;-144.99;100.00;52525.56;5092804;28;20772;-70
2023/11/05 02:24:56;;;;;;;;;;;;;;;-144.99;100.00;52494.97;5091971;28;19994;-70
2023/11/05 02:27:25;;;;;;;;;;;;;;;-144.99;100.00;52541.84;5100282;28;20098;-69
2023/11/05 02:29:51;;;;;;;;;;;;;;;-144.99;100.00;52517.41;5092411;28;19945;-69
2023/11/05 02:32:18;;;;;;;;;;;;;;;-144.99;100.00;52509.25;5092735;28;20068;-69
2023/11/05 02:34:44;;;;;;;;;;;;;;;-144.99;100.00;52501.09;5100700;28;19946;-68
2023/11/05 02:37:11;;;;;;;;;;;;;;;-144.99;100.00;52527.59;5100099;28;20041;-70
2023/11/05 02:39:38;;;;;;;;;;;;;;;-144.99;100.00;52486.81;5092081;28;20027;-70
2023/11/05 02:42:06;;;;;;;;;;;;;;;-144.99;100.00;52521.47;5091589;28;20002;-69
2023/11/05 02:44:32;;;;;;;;;;;;;;;-144.99;100.00;52521.47;5091639;28;20023;-70
2023/11/05 02:46:59;;;;;;;;;;;;;;;-144.99;100.00;52525.56;5091007;28;19995;-69
2023/11/05 02:49:25;;;;;;;;;;;;;;;-144.99;100.00;52505.16;5091469;28;19949;-69
2023/11/05 02:51:52;;;;;;;;;;;;;;;-144.99;100.00;52550.00;5091155;28;20023;-71
2023/11/05 02:54:19;;;;;;;;;;;;;;;-144.99;100.00;52521.47;5091324;28;19997;-70
2023/11/05 02:56:45;;;;;;;;;;;;;;;-144.99;100.00;52513.31;5091372;28;19999;-69
2023/11/05 02:59:17;;;;;;;;;;;;;;;-144.99;100.00;52509.25;5102882;28;20379;-69
2023/11/05 03:01:43;;;;;;;;;;;;;;;-144.99;100.00;52497.00;5096977;28;20019;-69
2023/11/05 03:04:10;;;;;;;;;;;;;;;-144.99;100.00;52517.41;5090842;28;19947;-69
2023/11/05 03:06:36;;;;;;;;;;;;;;;-144.99;100.00;52529.63;5090980;28;20048;-70
2023/11/05 03:09:03;;;;;;;;;;;;;;;-144.99;100.00;52501.09;5090929;28;19942;-69
2023/11/05 03:11:29;;;;;;;;;;;;;;;-144.99;100.00;52497.00;5066632;28;20061;-68
2023/11/05 03:13:56;;;;;;;;;;;;;;;-144.99;100.00;52480.72;5094260;28;20042;-69
2023/11/05 03:16:24;;;;;;;;;;;;;;;-144.99;100.00;52521.47;5089669;28;20057;-69
2023/11/05 03:18:50;;;;;;;;;;;;;;;-144.99;100.00;52497.00;5090715;28;20031;-69
2023/11/05 03:21:17;;;;;;;;;;;;;;;-144.99;100.00;52492.94;5091166;28;20063;-68
2023/11/05 03:23:43;;;;;;;;;;;;;;;-144.99;100.00;52484.78;5091080;28;20472;-70
2023/11/05 03:26:10;;;;;;;;;;;;;;;-144.99;100.00;52509.25;5090835;28;19958;-70
2023/11/05 03:28:36;;;;;;;;;;;;;;;-144.99;100.00;52513.31;5090791;28;20001;-70
2023/11/05 03:31:03;;;;;;;;;;;;;;;-144.99;100.00;52486.81;5091181;28;20402;-70
2023/11/05 03:33:30;;;;;;;;;;;;;;;-144.99;100.00;52497.00;5082391;28;20445;-70
2023/11/05 03:35:57;;;;;;;;;;;;;;;-144.99;100.00;52497.00;5090304;28;20094;-70
2023/11/05 03:38:23;;;;;;;;;;;;;;;-144.99;100.00;52513.31;5080454;28;19991;-70
2023/11/05 03:40:50;;;;;;;;;;;;;;;-144.99;100.00;52541.84;5090746;28;19959;-70
2023/11/05 03:43:16;;;;;;;;;;;;;;;-144.99;100.00;52517.41;5090208;28;20037;-70
2023/11/05 03:45:42;;;;;;;;;;;;;;;-144.99;100.00;52531.66;5090482;28;20038;-69
2023/11/05 03:48:09;;;;;;;;;;;;;;;-144.99;100.00;52474.59;5090201;28;19946;-69
2023/11/05 03:50:37;;;;;;;;;;;;;;;-144.99;100.00;52545.94;5071994;28;19945;-70
2023/11/05 03:53:03;;;;;;;;;;;;;;;-144.99;100.00;52521.47;5096653;28;19981;-69
2023/11/05 03:55:30;;;;;;;;;;;;;;;-144.99;100.00;52511.28;5072047;28;20365;-70
2023/11/05 03:57:56;;;;;;;;;;;;;;;-144.99;100.00;52511.28;5091117;28;19979;-70
2023/11/05 04:00:23;;;;;;;;;;;;;;;-144.99;100.00;52509.25;5097458;28;19991;-69
2023/11/05 04:02:49;;;;;;;;;;;;;;;-144.99;100.00;52513.31;5095760;28;20362;-70
2023/11/05 04:05:16;;;;;;;;;;;;;;;-144.99;100.00;52537.78;5098036;28;19943;-70
2023/11/05 04:07:43;;;;;;;;;;;;;;;-144.99;100.00;52488.84;5096797;28;19959;-70
2023/11/05 04:10:11;;;;;;;;;;;;;;;-144.99;100.00;52509.25;5090191;28;19945;-70
2023/11/05 04:12:38;;;;;;;;;;;;;;;-144.99;100.00;52501.09;5090261;28;20260;-69
2023/11/05 04:15:06;;;;;;;;;;;;;;;-144.99;100.00;52521.47;5088245;28;19942;-70
2023/11/05 04:17:33;;;;;;;;;;;;;;;-144.99;100.00;52509.25;5085041;28;19955;-70
2023/11/05 04:19:59;;;;;;;;;;;;;;;-144.99;100.00;52531.66;5089627;28;19989;-69
2023/11/05 04:22:25;;;;;;;;;;;;;;;-144.99;100.00;52492.94;5090167;28;19956;-69
2023/11/05 04:24:53;;;;;;;;;;;;;;;-144.99;100.00;52505.16;5089951;28;20222;-70
2023/11/05 04:27:20;;;;;;;;;;;;;;;-144.99;100.00;52537.78;5090228;28;20007;-69
2023/11/05 04:29:46;;;;;;;;;;;;;;;-144.99;100.00;52529.63;5097907;28;19942;-69
2023/11/05 04:32:14;;;;;;;;;;;;;;;-144.99;100.00;52521.47;5089799;28;20359;-69
2023/11/05 04:34:40;;;;;;;;;;;;;;;-144.99;100.00;52505.16;5089475;28;20031;-70
2023/11/05 04:37:07;;;;;;;;;;;;;;;-144.99;100.00;52464.41;5089790;28;20011;-68
2023/11/05 04:39:34;;;;;;;;;;;;;;;-144.99;100.00;52486.81;5094303;28;19948;-69
2023/11/05 04:42:02;;;;;;;;;;;;;;;-144.99;100.00;52521.47;5087237;28;20002;-71
2023/11/05 04:44:28;;;;;;;;;;;;;;;-144.99;100.00;52501.09;5089670;28;20429;-70
2023/11/05 04:46:54;;;;;;;;;;;;;;;-144.99;100.00;52497.00;5089801;28;19965;-70
2023/11/05 04:49:21;;;;;;;;;;;;;;;-144.99;100.00;52509.25;5095646;28;19943;-72
2023/11/05 04:51:47;;;;;;;;;;;;;;;-144.99;100.00;52501.09;5094852;28;20038;-68
2023/11/05 04:54:14;;;;;;;;;;;;;;;-144.99;100.00;52490.91;5089498;28;19971;-71
2023/11/05 04:56:41;;;;;;;;;;;;;;;-144.99;100.00;52484.78;5089405;28;19999;-69
2023/11/05 04:59:09;;;;;;;;;;;;;;;-144.99;100.00;52497.00;5089820;28;19941;-69
2023/11/05 05:01:36;;;;;;;;;;;;;;;-144.99;100.00;52513.31;5094838;28;19954;-70
2023/11/05 05:04:02;;;;;;;;;;;;;;;-144.99;100.00;52501.09;5088664;28;19946;-70
2023/11/05 05:06:29;;;;;;;;;;;;;;;-144.99;100.00;52509.25;5088588;28;19954;-69
2023/11/05 05:08:55;;;;;;;;;;;;;;;-144.99;100.00;52499.06;5093755;28;19945;-70
2023/11/05 05:11:22;;;;;;;;;;;;;;;-144.99;100.00;52515.34;5089064;28;19975;-71
2023/11/05 05:13:48;;;;;;;;;;;;;;;-144.99;100.00;52480.72;5088962;28;20049;-68
2023/11/05 05:16:18;;;;;;;;;;;;;;;-144.99;100.00;52525.56;5086956;28;19986;-69
2023/11/05 05:18:45;;;;;;;;;;;;;;;-144.99;100.00;52529.63;5089106;28;19944;-69
2023/11/05 05:21:11;;;;;;;;;;;;;;;-144.99;100.00;52488.84;5091024;28;19946;-69
2023/11/05 05:23:37;;;;;;;;;;;;;;;-144.99;100.00;52501.09;5093733;28;19977;-69
2023/11/05 05:26:04;;;;;;;;;;;;;;;-144.99;100.00;52484.78;5093139;28;20452;-69
2023/11/05 05:28:31;;;;;;;;;;;;;;;-144.99;100.00;52497.00;5096710;28;20028;-69
2023/11/05 05:30:57;;;;;;;;;;;;;;;-144.99;100.00;52474.59;5105061;28;19941;-69
2023/11/05 05:33:25;;;;;;;;;;;;;;;-144.99;100.00;52472.56;5093376;28;19997;-69
2023/11/05 05:35:51;;;;;;;;;;;;;;;-144.99;100.00;52494.97;5092311;28;20087;-68
2023/11/05 05:38:18;;;;;;;;;;;;;;;-144.99;100.00;52503.13;5092452;28;20713;-69
2023/11/05 05:40:45;;;;;;;;;;;;;;;-144.99;100.00;52468.47;5098366;28;20000;-68
2023/11/05 05:43:11;;;;;;;;;;;;;;;-144.99;100.00;52509.25;5094955;28;20458;-69
2023/11/05 05:45:38;;;;;;;;;;;;;;;-144.99;100.00;52513.31;5092303;28;19938;-69
2023/11/05 05:48:04;;;;;;;;;;;;;;;-144.99;100.00;52497.00;5101289;28;20015;-69
2023/11/05 05:50:32;;;;;;;;;;;;;;;-144.99;100.00;52511.28;5092899;28;19970;-69
2023/11/05 05:52:58;;;;;;;;;;;;;;;-144.99;100.00;52464.41;5092564;28;19943;-68
2023/11/05 05:55:25;;;;;;;;;;;;;;;-144.99;100.00;52541.84;5100334;28;19944;-70
2023/11/05 05:57:51;;;;;;;;;;;;;;;-144.99;100.00;52460.31;5092936;28;19941;-69
2023/11/05 06:00:18;;;;;;;;;;;;;;;-144.99;100.00;52497.00;5100174;28;20600;-69
2023/11/05 06:02:45;;;;;;;;;;;;;;;-144.99;100.00;52517.41;5089733;28;19924;-69
2023/11/05 06:05:11;;;;;;;;;;;;;;;-144.99;100.00;52505.16;5091853;28;20000;-70
2023/11/05 06:07:39;;;;;;;;;;;;;;;-144.99;100.00;52521.47;5092183;28;19960;-69
2023/11/05 06:10:07;;;;;;;;;;;;;;;-144.99;100.00;52482.75;5092345;28;20038;-69
2023/11/05 06:12:34;;;;;;;;;;;;;;;-144.99;100.00;52472.56;5092367;28;19981;-69
2023/11/05 06:15:00;;;;;;;;;;;;;;;-144.99;100.00;52515.34;5090430;28;19946;-69
2023/11/05 06:17:27;;;;;;;;;;;;;;;-144.99;100.00;52531.66;5095161;28;19955;-69
2023/11/05 06:19:54;;;;;;;;;;;;;;;-144.99;100.00;52460.31;5095090;28;20397;-69
2023/11/05 06:22:21;;;;;;;;;;;;;;;-144.99;100.00;52517.41;5094840;28;20180;-68
2023/11/05 06:24:48;;;;;;;;;;;;;;;-144.99;100.00;52521.47;5097753;28;19951;-68
2023/11/05 06:27:15;;;;;;;;;;;;;;;-144.99;100.00;52497.00;5089639;28;19958;-69
2023/11/05 06:29:41;;;;;;;;;;;;;;;-144.99;100.00;52505.16;5091597;28;20038;-69
2023/11/05 06:32:08;;;;;;;;;;;;;;;-144.99;100.00;52484.78;5091709;28;20031;-71
2023/11/05 06:34:34;;;;;;;;;;;;;;;-144.99;100.00;52497.00;5091291;28;19973;-69
2023/11/05 06:37:02;;;;;;;;;;;;;;;-144.99;100.00;52472.56;5090998;28;20045;-69
2023/11/05 06:39:28;;;;;;;;;;;;;;;-144.99;100.00;52521.47;5091807;28;19984;-69
2023/11/05 06:41:57;;;;;;;;;;;;;;;-144.99;100.00;52499.06;5100498;28;19995;-69
2023/11/05 06:44:23;;;;;;;;;;;;;;;-144.99;100.00;52505.16;5095749;28;19979;-68
2023/11/05 06:46:50;;;;;;;;;;;;;;;-144.99;100.00;52517.41;5086311;28;20051;-69
2023/11/05 06:49:16;;;;;;;;;;;;;;;-144.99;100.00;52505.16;5101222;28;20000;-69
2023/11/05 06:51:43;;;;;;;;;;;;;;;-144.99;100.00;52460.31;5093516;28;19993;-68
2023/11/05 06:54:09;;;;;;;;;;;;;;;-144.99;100.00;52468.47;5102508;28;20004;-68
2023/11/05 06:56:36;;;;;;;;;;;;;;;-144.99;100.00;52497.00;5092563;28;19990;-68
2023/11/05 06:59:04;;;;;;;;;;;;;;;-144.99;100.00;52511.28;5101961;28;19985;-69
2023/11/05 07:01:31;;;;;;;;;;;;;;;-144.99;100.00;52492.94;5096406;28;20034;-70
2023/11/05 07:03:58;;;;;;;;;;;;;;;-144.99;100.00;52484.78;5093447;28;19942;-68
2023/11/05 07:06:25;;;;;;;;;;;;;;;-144.99;100.00;52523.50;5092509;28;19958;-70
2023/11/05 07:08:51;;;;;;;;;;;;;;;-144.99;100.00;52492.94;5093342;28;19953;-69
2023/11/05 07:11:17;;;;;;;;;;;;;;;-144.99;100.00;52482.75;5092930;28;20023;-69
2023/11/05 07:13:44;;;;;;;;;;;;;;;-144.99;100.00;52513.31;5076137;28;20466;-69
2023/11/05 07:16:12;;;;;;;;;;;;;;;-144.99;100.00;52480.72;5092652;28;20047;-69
2023/11/05 07:18:38;;;;;;;;;;;;;;;-144.99;100.00;52448.09;5092549;28;19982;-69
2023/11/05 07:21:05;;;;;;;;;;;;;;;-144.99;100.00;52505.16;5093103;28;19950;-69
2023/11/05 07:23:32;;;;;;;;;;;;;;;-144.99;100.00;52480.72;5088433;28;19960;-69
2023/11/05 07:25:58;;;;;;;;;;;;;;;-144.99;100.00;52472.56;5099550;28;20058;-70
2023/11/05 07:28:24;;;;;;;;;;;;;;;-144.99;100.00;52505.16;5093146;28;20402;-69
2023/11/05 07:30:51;;;;;;;;;;;;;;;-144.99;100.00;52513.31;5092594;28;20097;-70
2023/11/05 07:33:19;;;;;;;;;;;;;;;-144.99;100.00;52497.00;5091894;28;20658;-70
2023/11/05 07:35:45;;;;;;;;;;;;;;;-144.99;100.00;52468.47;5092867;28;19960;-70
2023/11/05 07:38:12;;;;;;;;;;;;;;;-144.99;100.00;52484.78;5092213;28;19944;-69
2023/11/05 07:40:38;;;;;;;;;;;;;;;-144.99;100.00;52480.72;5093710;28;20033;-69
2023/11/05 07:43:05;;;;;;;;;;;;;;;-144.99;100.00;52492.94;5094210;28;20009;-72
2023/11/05 07:45:31;;;;;;;;;;;;;;;-144.99;100.00;52476.63;5091236;28;19944;-70
2023/11/05 07:47:58;;;;;;;;;;;;;;;-144.99;100.00;52515.34;5094084;28;20027;-70
2023/11/05 07:50:26;;;;;;;;;;;;;;;-144.99;100.00;52492.94;5094082;28;19946;-70
2023/11/05 07:52:52;;;;;;;;;;;;;;;-144.99;100.00;52509.25;5091818;28;19952;-74
2023/11/05 07:55:19;;;;;;;;;;;;;;;-144.99;100.00;52490.91;5097682;28;19944;-69
2023/11/05 07:57:45;;;;;;;;;;;;;;;-144.99;100.00;52499.06;5094793;28;19940;-70
2023/11/05 08:00:15;;;;;;;;;;;;;;;-144.99;100.00;52523.50;5094988;28;20035;-70
2023/11/05 08:02:41;;;;;;;;;;;;;;;-144.99;100.00;52439.94;5100217;28;20023;-70
2023/11/05 08:05:08;;;;;;;;;;;;;;;-144.99;100.00;52452.16;5092792;28;19942;-69
2023/11/05 08:07:36;;;;;;;;;;;;;;;-144.99;100.00;52501.09;5111324;22;19966;-73
2023/11/05 08:10:06;;;;;;;;;;;;;;;-144.99;100.00;52423.63;5106899;27;20435;-73
2023/11/05 08:12:32;;;;;;;;;;;;;;;-144.99;100.00;52527.59;5110724;28;20122;-73
2023/11/05 08:14:59;;;;;;;;;;;;;;;-144.99;100.00;52492.94;5107646;27;20565;-73
2023/11/05 08:17:25;;;;;;;;;;;;;;;-144.99;100.00;52488.84;5114403;27;19943;-74
2023/11/05 08:19:52;;;;;;;;;;;;;;;-144.99;100.00;52472.56;5109040;28;20461;-73
2023/11/05 08:22:19;;;;;;;;;;;;;;;-144.99;100.00;52456.25;5105054;28;20003;-73
2023/11/05 08:24:48;;;;;;;;;;;;;;;-144.99;100.00;52488.84;5117228;27;19965;-75
2023/11/05 08:27:14;;;;;;;;;;;;;;;-144.99;100.00;52456.25;5104100;27;19942;-75
2023/11/05 08:29:41;;;;;;;;;;;;;;;-144.99;100.00;52476.63;5100621;28;19985;-72
2023/11/05 08:32:07;;;;;;;;;;;;;;;-144.99;100.00;52492.94;5096758;28;19943;-74
2023/11/05 08:34:34;;;;;;;;;;;;;;;-144.99;100.00;52452.16;5103653;27;19986;-73
2023/11/05 08:37:01;;;;;;;;;;;;;;;-144.99;100.00;52488.84;5097577;27;19977;-73
2023/11/05 08:39:27;;;;;;;;;;;;;;;-144.99;100.00;52497.00;5100702;28;19948;-74
2023/11/05 08:41:56;;;;;;;;;;;;;;;-144.99;100.00;52468.47;5101399;28;19955;-73
2023/11/05 08:44:22;;;;;;;;;;;;;;;-144.99;100.00;52464.41;5106713;28;20013;-73
2023/11/05 08:46:49;;;;;;;;;;;;;;;-144.99;100.00;52492.94;5111457;27;19991;-73
2023/11/05 08:49:16;;;;;;;;;;;;;;;-144.99;100.00;52497.00;5115245;27;19982;-74
2023/11/05 08:51:42;;;;;;;;;;;;;;;-144.99;100.00;52497.00;5115639;27;19968;-74
2023/11/05 08:54:09;;;;;;;;;;;;;;;-144.99;100.00;52515.34;5113140;27;20423;-73
2023/11/05 08:56:35;;;;;;;;;;;;;;;-144.99;100.00;52488.84;5121013;27;19952;-73
2023/11/05 08:59:04;;;;;;;;;;;;;;;-144.99;100.00;52482.75;5116357;27;19985;-73
2023/11/05 09:01:31;;;;;;;;;;;;;;;-144.99;100.00;52505.16;5103075;28;20364;-72
2023/11/05 09:03:58;;;;;;;;;;;;;;;-144.99;100.00;52505.16;5116120;27;19934;-73
2023/11/05 09:06:24;;;;;;;;;;;;;;;-144.99;100.00;52464.41;5116625;28;19935;-73
2023/11/05 09:08:51;;;;;;;;;;;;;;;-144.99;100.00;52484.78;5112684;28;19942;-73
2023/11/05 09:11:18;;;;;;;;;;;;;;;-144.99;100.00;52484.78;5117323;28;20351;-73
2023/11/05 09:13:45;;;;;;;;;;;;;;;-144.99;100.00;52488.84;5112243;28;19927;-73
2023/11/05 09:16:13;;;;;;;;;;;;;;;-144.99;100.00;52476.63;5106661;28;20003;-73
2023/11/05 09:18:39;;;;;;;;;;;;;;;-144.99;100.00;52464.41;5107191;28;19983;-73
2023/11/05 09:21:06;;;;;;;;;;;;;;;-144.99;100.00;52448.09;5117089;28;19946;-73
2023/11/05 09:23:32;;;;;;;;;;;;;;;-144.99;100.00;52497.00;5117264;28;19993;-73
2023/11/05 09:25:59;;;;;;;;;;;;;;;-144.99;100.00;52444.03;5119299;28;20554;-73
2023/11/05 09:28:25;;;;;;;;;;;;;;;-144.99;100.00;52460.31;5123630;28;20460;-74
2023/11/05 09:30:53;;;;;;;;;;;;;;;-144.99;100.00;52444.03;5121002;28;19924;-73
2023/11/05 09:33:22;;;;;;;;;;;;;;;-144.99;100.00;52388.97;5118119;28;19985;-73
2023/11/05 09:35:48;;;;;;;;;;;;;;;-144.99;100.00;52417.53;5121247;28;19954;-73
2023/11/05 09:38:15;;;;;;;;;;;;;;;-144.99;100.00;52431.78;5125746;28;19960;-73
2023/11/05 09:40:41;;;;;;;;;;;;;;;-144.99;100.00;52382.88;5118920;28;19949;-72
2023/11/05 09:43:10;;;;;;;;;;;;;;;-144.99;100.00;52441.97;5130684;28;19977;-72
2023/11/05 09:45:37;;;;;;;;;;;;;;;-144.99;100.00;52441.97;5125237;28;20041;-72
2023/11/05 09:48:04;;;;;;;;;;;;;;;-144.99;100.00;52452.16;5122090;28;19946;-73
2023/11/05 09:50:33;;;;;;;;;;;;;;;-144.99;100.00;52468.47;5116885;28;19973;-74
2023/11/05 09:53:05;;;;;;;;;;;;;;;-144.99;100.00;52464.41;5118836;28;19987;-73
2023/11/05 09:55:31;;;;;;;;;;;;;;;-144.99;100.00;52423.63;5116694;28;19947;-73
2023/11/05 09:58:00;;;;;;;;;;;;;;;-144.99;100.00;52456.25;5122593;28;19938;-73
2023/11/05 10:00:27;;;;;;;;;;;;;;;-144.99;100.00;52448.09;5117194;28;19940;-73
2023/11/05 10:02:55;;;;;;;;;;;;;;;-144.99;100.00;52427.72;5120167;28;19958;-73
2023/11/05 10:05:21;;;;;;;;;;;;;;;-144.99;100.00;52417.53;5118521;28;19987;-73
2023/11/05 10:07:50;;;;;;;;;;;;;;;-144.99;100.00;52444.03;5132709;28;19951;-73
2023/11/05 10:10:17;;;;;;;;;;;;;;;-144.99;100.00;52460.31;5125742;27;19949;-74
2023/11/05 10:12:43;;;;;;;;;;;;;;;-144.99;100.00;52452.16;5125981;27;19938;-74
2023/11/05 10:15:10;;;;;;;;;;;;;;;-144.99;100.00;52456.25;5121524;27;20009;-73
2023/11/05 10:17:37;;;;;;;;;;;;;;;-144.99;100.00;52419.56;5116017;27;19995;-73
2023/11/05 10:20:04;;;;;;;;;;;;;;;-144.99;100.00;52407.31;5119838;27;19946;-74
2023/11/05 10:22:30;;;;;;;;;;;;;;;-144.99;100.00;52431.78;5116904;28;20040;-75
2023/11/05 10:24:58;;;;;;;;;;;;;;;-144.99;100.00;52484.78;5118669;27;20044;-75
2023/11/05 10:27:29;;;;;;;;;;;;;;;-144.99;100.00;52452.16;5117691;27;20438;-75
2023/11/05 10:29:56;;;;;;;;;;;;;;;-144.99;100.00;52476.63;5115375;27;19954;-75
2023/11/05 10:32:23;;;;;;;;;;;;;;;-144.99;100.00;52460.31;5103939;27;19943;-78
2023/11/05 10:34:51;;;;;;;;;;;;;;;-144.99;100.00;52435.88;5111391;27;20049;-75
2023/11/05 10:37:17;;;;;;;;;;;;;;;-144.99;100.00;52444.03;5110332;28;19947;-75
2023/11/05 10:39:44;;;;;;;;;;;;;;;-144.99;100.00;52464.41;5112145;27;20019;-75
2023/11/05 10:42:12;;;;;;;;;;;;;;;-144.99;100.00;52460.31;5114037;27;20038;-73
2023/11/05 10:44:39;;;;;;;;;;;;;;;-144.99;100.00;52480.72;5124043;27;19966;-77
2023/11/05 10:47:06;;;;;;;;;;;;;;;-144.99;100.00;52468.47;5114925;27;19940;-75
2023/11/05 10:49:33;;;;;;;;;;;;;;;-144.99;100.00;52460.31;5104848;28;19940;-75
2023/11/05 10:52:01;;;;;;;;;;;;;;;-144.99;100.00;52415.47;5104424;28;19939;-73
2023/11/05 10:54:27;;;;;;;;;;;;;;;-144.99;100.00;52466.44;5109455;27;19953;-75
2023/11/05 10:56:54;;;;;;;;;;;;;;;-144.99;100.00;52480.72;5110930;27;20041;-73
2023/11/05 10:59:37;;;;;;;;;;;;;;;-144.99;100.00;52484.78;5107490;27;20051;-74
2023/11/05 11:02:06;;;;;;;;;;;;;;;-144.99;100.00;52395.09;5107216;27;19935;-74
2023/11/05 11:04:32;;;;;;;;;;;;;;;-144.99;100.00;52423.63;5113730;27;19963;-74
2023/11/05 11:06:59;;;;;;;;;;;;;;;-144.99;100.00;52468.47;5114271;28;19942;-75
2023/11/05 11:09:27;;;;;;;;;;;;;;;-144.99;100.00;52444.03;5124217;27;19954;-75
2023/11/05 11:11:54;;;;;;;;;;;;;;;-144.99;100.00;52452.16;5117925;27;19930;-74
2023/11/05 11:14:20;;;;;;;;;;;;;;;-144.99;100.00;52427.72;5108419;27;20286;-75
2023/11/05 11:16:48;;;;;;;;;;;;;;;-144.99;100.00;52466.44;5110312;28;19978;-74
2023/11/05 11:19:16;;;;;;;;;;;;;;;-144.99;100.00;52476.63;5096983;28;19978;-73
2023/11/05 11:21:46;;;;;;;;;;;;;;;-144.99;100.00;52476.63;5106903;27;20045;-74
2023/11/05 11:24:33;;;;;;;;;;;;;;;-144.99;100.00;52460.31;5103257;28;20066;-74
2023/11/05 11:27:00;;;;;;;;;;;;;;;-144.99;100.00;52497.00;5105002;27;19976;-74
2023/11/05 11:29:27;;;;;;;;;;;;;;;-144.99;100.00;52456.25;5102216;28;19985;-75
2023/11/05 11:31:55;;;;;;;;;;;;;;;-144.99;100.00;52452.16;5105249;28;19944;-74
2023/11/05 11:34:21;;;;;;;;;;;;;;;-144.99;100.00;52484.78;5109091;27;19973;-75
2023/11/05 11:36:56;;;;;;;;;;;;;;;-144.99;100.00;52460.31;5116572;27;19961;-74
2023/11/05 11:39:23;;;;;;;;;;;;;;;-144.99;100.00;52480.72;5102883;27;20042;-74
2023/11/05 11:41:49;;;;;;;;;;;;;;;-144.99;100.00;52484.78;5114343;27;19938;-75
2023/11/05 11:44:16;;;;;;;;;;;;;;;-144.99;100.00;52456.25;5111196;27;20354;-73
2023/11/05 11:46:44;;;;;;;;;;;;;;;-144.99;100.00;52476.63;5109006;28;19942;-73
2023/11/05 11:49:12;;;;;;;;;;;;;;;-144.99;100.00;52460.31;5106579;28;19945;-73
2023/11/05 11:51:38;;;;;;;;;;;;;;;-144.99;100.00;52460.31;5110568;27;20407;-72
2023/11/05 11:54:05;;;;;;;;;;;;;;;-144.99;100.00;52470.50;5106898;28;20094;-72
2023/11/05 11:56:32;;;;;;;;;;;;;;;-144.99;100.00;52484.78;5113324;27;19938;-75
2023/11/05 11:59:02;;;;;;;;;;;;;;;-144.99;100.00;52468.47;5117828;27;19953;-75
2023/11/05 12:01:30;;;;;;;;;;;;;;;-144.99;100.00;52460.31;5106676;28;20365;-75
2023/11/05 12:03:56;;;;;;;;;;;;;;;-144.99;100.00;52492.94;5105309;28;19985;-76
2023/11/05 12:06:26;;;;;;;;;;;;;;;-144.99;100.00;52484.78;5114382;27;20018;-74
2023/11/05 12:08:54;;;;;;;;;;;;;;;-144.99;100.00;52454.22;5104292;28;20468;-75
2023/11/05 12:11:22;;;;;;;;;;;;;;;-144.99;100.00;52517.41;5112145;28;19997;-76
2023/11/05 12:13:49;;;;;;;;;;;;;;;-144.99;100.00;52468.47;5119266;28;19959;-75
2023/11/05 12:16:17;;;;;;;;;;;;;;;-144.99;100.00;52492.94;5113640;27;19936;-75